createdAt,value
2019-03-12T00:01:20.273Z,92092.42
2019-03-12T00:03:54.181Z,92074.49
2019-03-12T00:06:43.076Z,92060.91
2019-03-12T00:09:18.476Z,92039.53
2019-03-12T00:12:00.085Z,92058.83
2019-03-12T00:14:37.003Z,92013.57
2019-03-12T00:17:16.306Z,92013.78
2019-03-12T00:20:12.308Z,91999.38
2019-03-12T00:22:47.378Z,91976.58
2019-03-12T00:25:25.893Z,92003.10
2019-03-12T00:28:01.908Z,91948.95
2019-03-12T00:30:38.340Z,91968.26
2019-03-12T00:33:13.644Z,91924.50
2019-03-12T00:35:52.075Z,91962.49
2019-03-12T00:38:27.651Z,91932.60
2019-03-12T00:41:08.258Z,91921.92
2019-03-12T00:43:44.437Z,91885.81
2019-03-12T00:46:26.886Z,91861.37
2019-03-12T00:49:05.927Z,91892.55
2019-03-12T00:51:47.535Z,91877.50
2019-03-12T00:54:17.442Z,91877.21
2019-03-12T00:56:52.880Z,91887.09
2019-03-12T00:59:23.681Z,91857.20
2019-03-12T01:02:17.170Z,91813.92
2019-03-12T01:07:22.550Z,91902.44
2019-03-12T01:09:56.918Z,91885.59
2019-03-12T01:12:36.615Z,91827.83
2019-03-12T01:15:10.731Z,91801.04
2019-03-12T01:17:41.282Z,91760.58
2019-03-12T01:20:12.993Z,91749.09
2019-03-12T01:22:48.144Z,91808.84
2019-03-12T01:25:29.538Z,91787.51
2019-03-12T01:28:03.216Z,91819.52
2019-03-12T01:30:36.534Z,91855.40
2019-03-12T01:33:07.339Z,91826.03
2019-03-12T01:35:39.802Z,91828.33
2019-03-12T01:38:16.802Z,91787.08
2019-03-12T01:40:51.678Z,91743.66
2019-03-12T01:43:25.918Z,91712.73
2019-03-12T01:46:04.422Z,91724.19
2019-03-12T01:48:40.804Z,91707.02
2019-03-12T01:51:15.863Z,91739.80
2019-03-12T01:53:55.291Z,91718.47
2019-03-12T01:56:29.302Z,91680.82
2019-03-12T01:59:20.730Z,91656.92
2019-03-12T02:01:58.153Z,91689.41
2019-03-12T02:04:29.486Z,91633.78
2019-03-12T02:07:00.691Z,91592.52
2019-03-12T02:09:51.045Z,91607.54
2019-03-12T02:12:21.674Z,91644.45
2019-03-12T02:14:56.330Z,91635.86
2019-03-12T02:17:31.834Z,91633.28
2019-03-12T02:20:18.990Z,91597.95
2019-03-12T02:22:53.926Z,91579.35
2019-03-12T02:25:26.973Z,91562.98
2019-03-12T02:27:58.102Z,91542.66
2019-03-12T02:30:37.778Z,91573.35
2019-03-12T02:33:12.330Z,91605.53
2019-03-12T02:35:45.283Z,91579.86
2019-03-12T02:38:20.545Z,91533.64
2019-03-12T02:40:55.647Z,91567.63
2019-03-12T02:43:28.355Z,91527.14
2019-03-12T02:46:12.464Z,91487.19
2019-03-12T02:48:46.201Z,91535.72
2019-03-12T02:51:19.445Z,91505.34
2019-03-12T02:53:50.712Z,91499.41
2019-03-12T02:56:24.601Z,91543.03
2019-03-12T02:58:55.228Z,91510.05
2019-03-12T03:01:26.062Z,91501.98
2019-03-12T03:03:56.838Z,91531.56
2019-03-12T03:06:55.261Z,91494.98
2019-03-12T03:09:27.203Z,91485.89
2019-03-12T03:12:05.026Z,91447.03
2019-03-12T03:14:50.272Z,91401.63
2019-03-12T03:17:44.101Z,91391.50
2019-03-12T03:20:20.230Z,91404.20
2019-03-12T03:22:53.079Z,91384.78
2019-03-12T03:25:25.649Z,91374.64
2019-03-12T03:27:57.939Z,91417.20
2019-03-12T03:30:47.955Z,91425.20
2019-03-12T03:33:20.917Z,91387.63
2019-03-12T03:35:55.721Z,91403.48
2019-03-12T03:38:41.942Z,91354.22
2019-03-12T03:41:12.219Z,91367.14
2019-03-12T03:43:46.838Z,91308.09
2019-03-12T03:46:31.179Z,91303.67
2019-03-12T03:49:03.305Z,91288.18
2019-03-12T03:51:44.627Z,91283.54
2019-03-12T03:54:15.350Z,91285.83
2019-03-12T03:56:55.517Z,91295.67
2019-03-12T03:59:26.548Z,91283.76
2019-03-12T04:01:58.477Z,91243.37
2019-03-12T04:04:38.093Z,91221.86
2019-03-12T04:07:12.101Z,91264.06
2019-03-12T04:09:46.918Z,91249.30
2019-03-12T04:12:19.165Z,91202.95
2019-03-12T04:14:49.895Z,91231.23
2019-03-12T04:17:25.464Z,91212.30
2019-03-12T04:19:56.301Z,91239.73
2019-03-12T04:22:26.848Z,91221.58
2019-03-12T04:24:59.040Z,91173.94
2019-03-12T04:27:31.859Z,91153.31
2019-03-12T04:30:16.101Z,91211.02
2019-03-12T04:32:48.195Z,91156.16
2019-03-12T04:35:19.520Z,91116.00
2019-03-12T04:37:50.206Z,91102.30
2019-03-12T04:40:21.140Z,91087.33
2019-03-12T04:43:25.096Z,91109.02
2019-03-12T04:45:55.885Z,91111.42
2019-03-12T04:48:26.958Z,91070.23
2019-03-12T04:51:06.331Z,91123.30
2019-03-12T04:53:49.099Z,91119.13
2019-03-12T04:56:19.891Z,91096.38
2019-03-12T04:59:04.384Z,91082.92
2019-03-12T05:01:42.891Z,91033.53
2019-03-12T05:04:27.798Z,91065.09
2019-03-12T05:07:54.082Z,91062.97
2019-03-12T05:13:28.646Z,91043.08
2019-03-12T05:16:13.278Z,91080.34
2019-03-12T05:18:52.853Z,91069.22
2019-03-12T05:21:55.528Z,91034.81
2019-03-12T05:24:35.962Z,91040.73
2019-03-12T05:27:58.881Z,91007.41
2019-03-12T05:30:38.392Z,91056.88
2019-03-12T05:33:29.233Z,91041.07
2019-03-12T05:35:51.660Z,91033.81
2019-03-12T05:38:30.384Z,91049.56
2019-03-12T05:41:08.325Z,91072.08
2019-03-12T05:44:00.083Z,91074.92
2019-03-12T05:46:34.951Z,91134.48
2019-03-12T05:49:11.507Z,91171.20
2019-03-12T05:51:43.458Z,91237.50
2019-03-12T05:54:18.788Z,91381.48
2019-03-12T05:56:56.002Z,91453.30
2019-03-12T06:00:09.149Z,91495.83
2019-03-12T06:03:15.798Z,91509.61
2019-03-12T06:12:38.149Z,91936.97
2019-03-12T06:15:27.162Z,91919.84
2019-03-12T06:18:32.110Z,91870.11
2019-03-12T06:21:22.078Z,91912.24
2019-03-12T06:23:58.015Z,91933.09
2019-03-12T06:26:37.305Z,91927.37
2019-03-12T06:29:21.336Z,91901.64
2019-03-12T06:32:18.549Z,91871.69
2019-03-12T06:35:21.361Z,91885.23
2019-03-12T06:38:10.467Z,91945.31
2019-03-12T06:41:09.604Z,92077.30
2019-03-12T06:43:53.810Z,92291.98
2019-03-12T06:46:53.132Z,92339.41
2019-03-12T06:49:45.061Z,92254.70
2019-03-12T06:52:44.508Z,92088.41
2019-03-12T06:55:45.059Z,92061.16
2019-03-12T06:58:49.841Z,92108.00
2019-03-12T07:02:04.444Z,92188.56
2019-03-12T07:05:07.447Z,92403.12
2019-03-12T07:08:19.500Z,92846.09
2019-03-12T07:10:55.125Z,93293.67
2019-03-12T07:14:10.955Z,93680.92
2019-03-12T07:17:09.000Z,94124.83
2019-03-12T07:19:55.023Z,94641.55
2019-03-12T07:22:40.572Z,94841.13
2019-03-12T07:25:51.210Z,94667.41
2019-03-12T07:28:50.223Z,94406.10
2019-03-12T07:31:39.916Z,94167.09
2019-03-12T07:34:50.087Z,94184.06
2019-03-12T07:37:56.781Z,94310.02
2019-03-12T07:40:53.027Z,94899.84
2019-03-12T07:47:54.522Z,96569.94
2019-03-12T07:51:44.071Z,97025.49
2019-03-12T07:54:25.397Z,97410.50
2019-03-12T07:57:35.757Z,97746.41
2019-03-12T08:01:21.040Z,97739.45
2019-03-12T08:04:26.051Z,97339.15
2019-03-12T08:11:41.856Z,97000.97
2019-03-12T08:14:58.565Z,96991.54
2019-03-12T08:18:00.434Z,96689.30
2019-03-12T08:24:46.246Z,95634.55
2019-03-12T08:28:27.682Z,95523.69
2019-03-12T08:32:16.892Z,96098.28
2019-03-12T08:42:23.327Z,97629.05
2019-03-12T08:50:30.985Z,97335.85
2019-03-12T08:55:58.596Z,97961.68
2019-03-12T08:59:46.107Z,98159.29
2019-03-12T09:03:42.425Z,98000.97
2019-03-12T09:09:30.336Z,96876.84
2019-03-12T09:12:39.334Z,97122.05
2019-03-12T09:19:00.972Z,96906.36
2019-03-12T09:21:45.005Z,96367.84
2019-03-12T09:25:13.727Z,96557.83
2019-03-12T09:28:36.858Z,96934.36
2019-03-12T09:31:43.271Z,96976.89
2019-03-12T09:35:01.589Z,96838.63
2019-03-12T09:41:44.720Z,97219.56
2019-03-12T09:45:04.192Z,97294.55
2019-03-12T09:48:16.548Z,97199.93
2019-03-12T09:51:58.674Z,97285.46
2019-03-12T09:55:12.920Z,97635.83
2019-03-12T10:03:32.924Z,98281.70
2019-03-12T10:06:27.495Z,98357.49
2019-03-12T10:17:35.030Z,99242.41
2019-03-12T10:20:33.414Z,99259.09
2019-03-12T10:27:21.330Z,100087.84
2019-03-12T10:33:34.069Z,100871.28
2019-03-12T10:40:36.706Z,100850.52
2019-03-12T10:43:32.987Z,100848.18
2019-03-12T10:47:17.075Z,100650.22
2019-03-12T10:53:38.538Z,100734.80
2019-03-12T11:00:09.072Z,101218.49
2019-03-12T11:06:56.713Z,101046.44
2019-03-12T11:18:12.347Z,101196.55
2019-03-12T11:34:41.025Z,101474.52
2019-03-12T11:37:42.874Z,101122.08
2019-03-12T11:41:15.329Z,100838.78
2019-03-12T11:51:07.663Z,100348.69
2019-03-12T12:05:44.537Z,100496.25
2019-03-12T12:06:28.346Z,100257.30
2019-03-12T12:13:04.532Z,100023.62
2019-03-12T12:16:11.746Z,99488.52
2019-03-12T12:19:11.779Z,99451.07
2019-03-12T12:22:26.723Z,99377.31
2019-03-12T12:29:30.070Z,99157.63
2019-03-12T12:35:51.829Z,98777.64
2019-03-12T12:58:03.745Z,97673.41
2019-03-12T13:03:06.437Z,97821.45
2019-03-12T13:06:34.583Z,98047.10
2019-03-12T13:18:50.854Z,98636.45
2019-03-12T13:21:51.080Z,98533.62
2019-03-12T13:48:46.676Z,98265.61
2019-03-12T13:49:05.232Z,98050.08
2019-03-12T13:52:20.192Z,98036.65
2019-03-12T14:24:53.093Z,98308.17
2019-03-12T14:31:23.481Z,97859.07
2019-03-12T15:12:44.842Z,96620.08
2019-03-12T15:25:26.772Z,95692.95
2019-03-12T15:39:02.045Z,94914.16
2019-03-12T15:42:22.498Z,94701.80
2019-03-12T15:48:23.673Z,94363.70
2019-03-12T15:51:19.095Z,94363.70
2019-03-12T15:57:55.324Z,94220.11
2019-03-12T16:00:56.765Z,94154.16
2019-03-12T16:04:35.636Z,94122.11
2019-03-12T16:11:11.727Z,94154.46
2019-03-12T16:14:00.424Z,94090.11
2019-03-12T16:17:23.668Z,93964.53
2019-03-12T16:33:39.890Z,93558.97
2019-03-12T16:36:13.894Z,93586.56
2019-03-12T16:38:57.533Z,93517.27
2019-03-12T16:41:56.426Z,93417.41
2019-03-12T16:47:47.395Z,93352.86
2019-03-12T16:50:28.538Z,93276.17
2019-03-12T16:53:21.770Z,93174.38
2019-03-12T16:59:44.723Z,93022.61
2019-03-12T17:02:30.723Z,93015.33
2019-03-12T17:05:25.994Z,92993.02
2019-03-12T17:07:47.487Z,92925.25
2019-03-12T17:10:20.769Z,92904.87
2019-03-12T17:13:04.501Z,92920.78
2019-03-12T17:15:54.731Z,92922.87
2019-03-12T17:18:53.308Z,92869.70
2019-03-12T17:21:36.318Z,92826.57
2019-03-12T17:24:19.249Z,92821.80
2019-03-12T17:26:55.158Z,92769.84
2019-03-12T17:29:26.277Z,92726.36
2019-03-12T17:32:10.375Z,92718.51
2019-03-12T17:37:44.257Z,92576.55
2019-03-12T17:40:26.660Z,92504.98
2019-03-12T17:43:02.674Z,92486.80
2019-03-12T17:45:47.021Z,92493.34
2019-03-12T17:48:26.982Z,92469.03
2019-03-12T17:51:05.741Z,92464.86
2019-03-12T17:54:01.621Z,92508.66
2019-03-12T17:56:39.066Z,92442.59
2019-03-12T17:59:31.129Z,92462.27
2019-03-12T18:02:02.205Z,92455.72
2019-03-12T18:04:35.927Z,92412.61
2019-03-12T18:07:10.086Z,92336.50
2019-03-12T18:09:56.039Z,92298.16
2019-03-12T18:12:43.150Z,92295.30
2019-03-12T18:15:19.511Z,92248.60
2019-03-12T18:17:57.440Z,92209.22
2019-03-12T18:20:33.472Z,92181.17
2019-03-12T18:23:07.473Z,92225.48
2019-03-12T18:25:50.060Z,92247.88
2019-03-12T18:28:46.290Z,92276.04
2019-03-12T18:31:13.670Z,92238.26
2019-03-12T18:33:54.468Z,92176.80
2019-03-12T18:36:29.993Z,92165.02
2019-03-12T18:39:06.322Z,92187.67
2019-03-12T18:41:58.147Z,92206.41
2019-03-12T18:44:33.026Z,92181.43
2019-03-12T18:47:07.382Z,92166.89
2019-03-12T18:49:46.486Z,92147.08
2019-03-12T18:52:20.084Z,92107.72
2019-03-12T18:54:53.521Z,92105.42
2019-03-12T18:57:28.245Z,92073.45
2019-03-12T19:00:12.684Z,92143.48
2019-03-12T19:03:31.729Z,92137.75
2019-03-12T19:05:30.051Z,92166.09
2019-03-12T19:08:04.374Z,92136.67
2019-03-12T19:10:52.368Z,92068.97
2019-03-12T19:13:26.504Z,92067.68
2019-03-12T19:16:00.251Z,92058.78
2019-03-12T19:18:36.286Z,92072.13
2019-03-12T19:21:12.367Z,92101.55
2019-03-12T19:23:56.509Z,92164.09
2019-03-12T19:26:30.751Z,92121.67
2019-03-12T19:29:02.777Z,92095.80
2019-03-12T19:32:18.609Z,92070.05
2019-03-12T19:34:49.241Z,92069.55
2019-03-12T19:37:21.914Z,92116.72
2019-03-12T19:40:01.043Z,92123.97
2019-03-12T19:42:34.804Z,92220.88
2019-03-12T19:45:17.858Z,92268.36
2019-03-12T19:49:01.464Z,92223.83
2019-03-12T19:51:11.405Z,92235.83
2019-03-12T19:53:43.298Z,92230.58
2019-03-12T19:56:17.521Z,92287.40
2019-03-12T19:59:22.882Z,92309.84
2019-03-12T20:01:47.979Z,92282.73
2019-03-12T20:04:24.359Z,92280.36
2019-03-12T20:07:04.209Z,92306.44
2019-03-12T20:10:05.954Z,92285.90
2019-03-12T20:13:25.202Z,92411.27
2019-03-12T20:16:37.128Z,92388.91
2019-03-12T20:23:40.559Z,92390.70
2019-03-12T20:27:15.719Z,92465.67
2019-03-12T20:37:00.775Z,92570.39
2019-03-12T20:40:17.942Z,92561.75
2019-03-12T20:43:46.348Z,92568.80
2019-03-12T20:47:28.740Z,92628.95
2019-03-12T20:50:47.388Z,92665.32
2019-03-12T20:54:25.106Z,92728.02
2019-03-12T20:59:54.119Z,92674.97
2019-03-12T21:01:38.137Z,92722.83
2019-03-12T21:04:47.757Z,92761.82
2019-03-12T21:19:59.698Z,92683.11
2019-03-12T21:22:49.950Z,92687.00
2019-03-12T21:26:11.970Z,92703.20
2019-03-12T21:29:15.950Z,92635.50
2019-03-12T21:38:05.808Z,92702.20
2019-03-12T21:40:51.018Z,92714.47
2019-03-12T21:43:41.002Z,92667.70
2019-03-12T21:46:24.973Z,92659.56
2019-03-12T21:49:48.145Z,92660.34
2019-03-12T21:52:48.045Z,92674.97
2019-03-12T21:56:16.208Z,92712.17
2019-03-12T22:02:58.339Z,92756.55
2019-03-12T22:05:36.262Z,92706.09
2019-03-12T22:08:49.075Z,92693.84
2019-03-12T22:11:41.574Z,92746.90
2019-03-12T22:14:18.604Z,92764.20
2019-03-12T22:16:53.885Z,92740.13
2019-03-12T22:19:27.174Z,92736.75
2019-03-12T22:22:30.918Z,92740.63
2019-03-12T22:25:01.411Z,92750.08
2019-03-12T22:27:36.427Z,92809.79
2019-03-12T22:30:13.417Z,92806.41
2019-03-12T22:32:50.848Z,92824.92
2019-03-12T22:35:24.738Z,92776.03
2019-03-12T22:37:55.298Z,92816.86
2019-03-12T22:40:48.403Z,92831.28
2019-03-12T22:47:07.480Z,92874.27
2019-03-12T22:49:21.449Z,92859.25
2019-03-12T22:54:49.216Z,92876.56
2019-03-12T22:57:21.396Z,92911.36
2019-03-12T22:59:54.902Z,92953.57
2019-03-12T23:02:55.414Z,92933.95
2019-03-12T23:05:46.266Z,92989.65
2019-03-12T23:08:34.206Z,92985.96
2019-03-12T23:11:46.955Z,93006.68
2019-03-12T23:14:25.253Z,93036.89
2019-03-12T23:17:15.872Z,93029.02
2019-03-12T23:23:06.770Z,93037.90
2019-03-12T23:28:35.207Z,93114.98
2019-03-12T23:31:27.984Z,93110.97
2019-03-12T23:34:35.955Z,93197.56
2019-03-12T23:37:54.184Z,93181.02
2019-03-12T23:40:30.917Z,93185.70
2019-03-12T23:43:24.355Z,93224.84
2019-03-12T23:46:48.503Z,93252.38
2019-03-12T23:50:18.790Z,93260.56
2019-03-12T23:53:12.369Z,93241.20
2019-03-12T23:55:55.060Z,93254.77
2019-03-12T23:59:22.793Z,93254.56
